createdAt,value
2017-12-29T00:00:03.919Z,999.42
2017-12-29T00:01:04.285Z,999.46
2017-12-29T00:02:03.894Z,999.47
2017-12-29T00:03:04.143Z,999.46
2017-12-29T00:04:05.231Z,999.5
2017-12-29T00:05:05.123Z,999.54
2017-12-29T00:06:05.001Z,999.54
2017-12-29T00:07:05.959Z,999.55
2017-12-29T00:08:06.187Z,999.55
2017-12-29T00:09:05.900Z,999.51
2017-12-29T00:10:05.912Z,999.56
2017-12-29T00:11:06.362Z,999.55
2017-12-29T00:12:05.826Z,999.62
2017-12-29T00:13:06.316Z,999.62
2017-12-29T00:14:06.492Z,999.65
2017-12-29T00:15:06.263Z,999.62
2017-12-29T00:16:06.158Z,999.65
2017-12-29T00:17:06.392Z,999.61
2017-12-29T00:18:06.108Z,999.69
2017-12-29T00:19:06.363Z,999.68
2017-12-29T00:20:06.450Z,999.66
2017-12-29T00:21:06.090Z,999.71
2017-12-29T00:22:06.481Z,999.72
2017-12-29T00:23:06.065Z,999.74
2017-12-29T00:24:06.486Z,999.71
2017-12-29T00:25:06.116Z,999.64
2017-12-29T00:26:06.129Z,999.66
2017-12-29T00:27:07.033Z,999.64
2017-12-29T00:28:06.718Z,999.69
2017-12-29T00:29:06.742Z,999.62
2017-12-29T00:30:06.759Z,999.67
2017-12-29T00:31:07.216Z,999.62
2017-12-29T00:32:07.072Z,999.6
2017-12-29T00:33:07.089Z,999.55
2017-12-29T00:34:07.135Z,999.56
2017-12-29T00:35:07.681Z,999.54
2017-12-29T00:36:07.796Z,999.5
2017-12-29T00:37:08.631Z,999.56
2017-12-29T00:38:08.581Z,999.54
2017-12-29T00:39:08.579Z,999.53
2017-12-29T00:40:08.616Z,999.6
2017-12-29T00:41:08.647Z,999.64
2017-12-29T00:42:08.982Z,999.59
2017-12-29T00:43:09.298Z,999.58
2017-12-29T00:44:09.313Z,999.6
2017-12-29T00:45:09.444Z,999.59
2017-12-29T00:46:10.032Z,999.56
2017-12-29T00:47:10.055Z,999.57
2017-12-29T00:48:10.087Z,999.53
2017-12-29T00:49:10.221Z,999.63
2017-12-29T00:50:10.030Z,999.59
2017-12-29T00:51:10.157Z,999.55
2017-12-29T00:52:10.095Z,999.57
2017-12-29T00:53:10.096Z,999.64
2017-12-29T00:54:10.240Z,999.62
2017-12-29T00:55:10.608Z,999.59
2017-12-29T00:56:10.221Z,999.67
2017-12-29T00:57:10.648Z,999.68
2017-12-29T00:58:10.627Z,999.7
2017-12-29T00:59:10.662Z,999.74
2017-12-29T01:00:16.212Z,999.75
2017-12-29T01:01:16.174Z,999.79
2017-12-29T01:02:16.374Z,999.76
2017-12-29T01:03:16.480Z,999.76
2017-12-29T01:04:16.434Z,999.8
2017-12-29T01:05:16.475Z,999.84
2017-12-29T01:06:16.705Z,999.81
2017-12-29T01:07:16.731Z,999.77
2017-12-29T01:08:16.918Z,999.89
2017-12-29T01:09:17.249Z,999.83
2017-12-29T01:10:17.204Z,999.86
2017-12-29T01:11:17.247Z,999.85
2017-12-29T01:12:17.253Z,999.99
2017-12-29T01:13:17.294Z,999.94
2017-12-29T01:14:17.293Z,1000
2017-12-29T01:15:17.312Z,1000.08
2017-12-29T01:16:17.500Z,1000.04
2017-12-29T01:17:17.527Z,1000.06
2017-12-29T01:18:17.532Z,1000.06
2017-12-29T01:19:17.707Z,1000.11
2017-12-29T01:20:18.151Z,1000.11
2017-12-29T01:21:18.294Z,1000.12
2017-12-29T01:22:18.322Z,1000.16
2017-12-29T01:23:18.364Z,1000.11
2017-12-29T01:24:18.369Z,1000.24
2017-12-29T01:25:18.783Z,1000.19
2017-12-29T01:26:18.413Z,1000.2
2017-12-29T01:27:18.593Z,1000.22
2017-12-29T01:28:18.990Z,1000.22
2017-12-29T01:29:19.128Z,1000.2
2017-12-29T01:30:19.153Z,1000.26
2017-12-29T01:31:19.302Z,1000.29
2017-12-29T01:32:19.333Z,1000.28
2017-12-29T01:33:19.569Z,1000.27
2017-12-29T01:34:19.589Z,1000.31
2017-12-29T01:35:20.124Z,1000.29
2017-12-29T01:36:19.626Z,1000.23
2017-12-29T01:37:19.895Z,1000.29
2017-12-29T01:38:19.886Z,1000.28
2017-12-29T01:39:19.908Z,1000.3
2017-12-29T01:40:19.908Z,1000.28
2017-12-29T01:41:19.954Z,1000.21
2017-12-29T01:42:20.084Z,1000.2
2017-12-29T01:43:20.527Z,1000.24
2017-12-29T01:44:20.553Z,1000.29
2017-12-29T01:45:20.760Z,1000.29
2017-12-29T01:46:21.165Z,1000.28
2017-12-29T01:47:21.329Z,1000.35
2017-12-29T01:48:21.760Z,1000.33
2017-12-29T01:49:21.913Z,1000.31
2017-12-29T01:50:22.062Z,1000.35
2017-12-29T01:51:22.064Z,1000.4
2017-12-29T01:52:22.954Z,1000.36
2017-12-29T01:53:22.604Z,1000.44
2017-12-29T01:54:22.615Z,1000.4
2017-12-29T01:55:22.999Z,1000.39
2017-12-29T01:56:23.059Z,1000.4
2017-12-29T01:57:23.078Z,1000.38
2017-12-29T01:58:23.098Z,1000.38
2017-12-29T01:59:23.529Z,1000.36
2017-12-29T02:00:23.267Z,1000.4
2017-12-29T02:01:24.530Z,1000.46
2017-12-29T02:02:24.493Z,1000.39
2017-12-29T02:03:24.920Z,1000.41
2017-12-29T02:04:24.931Z,1000.5
2017-12-29T02:05:25.562Z,1000.48
2017-12-29T02:06:25.559Z,1000.42
2017-12-29T02:07:25.566Z,1000.42
2017-12-29T02:08:25.945Z,1000.44
2017-12-29T02:09:26.137Z,1000.44
2017-12-29T02:10:26.412Z,1000.38
2017-12-29T02:11:26.439Z,1000.31
2017-12-29T02:12:26.486Z,1000.37
2017-12-29T02:13:26.483Z,1000.4
2017-12-29T02:14:26.543Z,1000.35
2017-12-29T02:15:26.530Z,1000.32
2017-12-29T02:16:26.942Z,1000.35
2017-12-29T02:17:27.007Z,1000.3
2017-12-29T02:18:27.105Z,1000.41
2017-12-29T02:19:27.210Z,1000.37
2017-12-29T02:20:27.415Z,1000.35
2017-12-29T02:21:27.451Z,1000.32
2017-12-29T02:22:27.565Z,1000.34
2017-12-29T02:23:27.673Z,1000.41
2017-12-29T02:24:28.098Z,1000.42
2017-12-29T02:25:28.512Z,1000.42
2017-12-29T02:26:28.546Z,1000.36
2017-12-29T02:27:29.006Z,1000.39
2017-12-29T02:28:28.988Z,1000.41
2017-12-29T02:29:29.215Z,1000.39
2017-12-29T02:30:29.714Z,1000.38
2017-12-29T02:31:30.370Z,1000.44
2017-12-29T02:32:30.312Z,1000.41
2017-12-29T02:33:30.363Z,1000.46
2017-12-29T02:34:30.689Z,1000.45
2017-12-29T02:35:30.753Z,1000.5
2017-12-29T02:36:30.784Z,1000.53
2017-12-29T02:37:30.944Z,1000.49
2017-12-29T02:38:31.012Z,1000.51
2017-12-29T02:39:30.858Z,1000.55
2017-12-29T02:40:30.826Z,1000.55
2017-12-29T02:41:30.890Z,1000.58
2017-12-29T02:42:30.939Z,1000.64
2017-12-29T02:43:30.942Z,1000.66
2017-12-29T02:44:31.316Z,1000.68
2017-12-29T02:45:30.971Z,1000.63
2017-12-29T02:46:31.178Z,1000.65
2017-12-29T02:47:31.166Z,1000.76
2017-12-29T02:48:31.226Z,1000.69
2017-12-29T02:49:31.069Z,1000.65
2017-12-29T02:50:31.092Z,1000.66
2017-12-29T02:51:31.120Z,1000.65
2017-12-29T02:52:31.232Z,1000.72
2017-12-29T02:53:31.211Z,1000.7
2017-12-29T02:54:31.321Z,1000.68
2017-12-29T02:55:31.550Z,1000.64
2017-12-29T02:56:31.634Z,1000.63
2017-12-29T02:57:31.293Z,1000.71
2017-12-29T02:58:31.261Z,1000.76
2017-12-29T02:59:36.309Z,1000.72
2017-12-29T03:00:36.022Z,1000.82
2017-12-29T03:01:36.053Z,1000.76
2017-12-29T03:02:36.092Z,1000.76
2017-12-29T03:03:36.073Z,1000.84
2017-12-29T03:04:36.218Z,1000.84
2017-12-29T03:05:36.121Z,1000.88
2017-12-29T03:06:36.150Z,1000.92
2017-12-29T03:07:36.345Z,1000.98
2017-12-29T03:08:36.643Z,1000.86
2017-12-29T03:09:36.654Z,1000.95
2017-12-29T03:10:37.045Z,1000.99
2017-12-29T03:11:37.039Z,1000.99
2017-12-29T03:12:37.081Z,1001.05
2017-12-29T03:13:37.084Z,1001.01
2017-12-29T03:14:37.126Z,1001.07
2017-12-29T03:15:37.360Z,1001.08
2017-12-29T03:16:37.371Z,1001.11
2017-12-29T03:17:38.139Z,1001.09
2017-12-29T03:18:37.914Z,1001.1
2017-12-29T03:19:37.957Z,1001.12
2017-12-29T03:20:38.414Z,1001.13
2017-12-29T03:21:38.003Z,1001.17
2017-12-29T03:22:38.007Z,1001.18
2017-12-29T03:23:38.129Z,1001.22
2017-12-29T03:24:38.186Z,1001.21
2017-12-29T03:25:38.440Z,1001.23
2017-12-29T03:26:38.495Z,1001.25
2017-12-29T03:27:38.480Z,1001.22
2017-12-29T03:28:38.521Z,1001.17
2017-12-29T03:29:38.769Z,1001.19
2017-12-29T03:30:38.537Z,1001.28
2017-12-29T03:31:38.614Z,1001.2
2017-12-29T03:32:38.687Z,1001.23
2017-12-29T03:33:38.702Z,1001.2
2017-12-29T03:34:38.829Z,1001.24
2017-12-29T03:35:38.754Z,1001.25
2017-12-29T03:36:38.755Z,1001.24
2017-12-29T03:37:39.335Z,1001.27
2017-12-29T03:38:39.369Z,1001.17
2017-12-29T03:39:39.447Z,1001.18
2017-12-29T03:40:39.558Z,1001.27
2017-12-29T03:41:39.584Z,1001.23
2017-12-29T03:42:39.740Z,1001.25
2017-12-29T03:43:39.765Z,1001.24
2017-12-29T03:44:39.699Z,1001.18
2017-12-29T03:46:39.681Z,1001.19
2017-12-29T03:47:39.725Z,1001.31
2017-12-29T03:48:39.739Z,1001.28
2017-12-29T03:49:39.783Z,1001.29
2017-12-29T03:50:39.806Z,1001.26
2017-12-29T03:51:40.256Z,1001.26
2017-12-29T03:52:40.388Z,1001.32
2017-12-29T03:53:40.404Z,1001.31
2017-12-29T03:54:40.857Z,1001.35
2017-12-29T03:55:41.288Z,1001.36
2017-12-29T03:56:41.196Z,1001.43
2017-12-29T03:57:40.913Z,1001.4
2017-12-29T03:58:40.930Z,1001.39
2017-12-29T03:59:40.956Z,1001.35
2017-12-29T04:00:40.970Z,1001.41
2017-12-29T04:01:41.110Z,1001.4
2017-12-29T04:02:41.259Z,1001.35
2017-12-29T04:03:41.619Z,1001.35
2017-12-29T04:04:41.638Z,1001.41
2017-12-29T04:05:41.679Z,1001.45
2017-12-29T04:06:41.683Z,1001.43
2017-12-29T04:07:42.256Z,1001.44
2017-12-29T04:08:42.694Z,1001.37
2017-12-29T04:09:42.860Z,1001.41
2017-12-29T04:10:42.894Z,1001.39
2017-12-29T04:11:43.071Z,1001.45
2017-12-29T04:12:43.269Z,1001.45
2017-12-29T04:13:43.430Z,1001.44
2017-12-29T04:14:43.827Z,1001.43
2017-12-29T04:15:43.832Z,1001.44
2017-12-29T04:16:44.605Z,1001.43
2017-12-29T04:17:44.910Z,1001.47
2017-12-29T04:18:44.623Z,1001.53
2017-12-29T04:19:44.656Z,1001.56
2017-12-29T04:20:44.734Z,1001.65
2017-12-29T04:21:45.104Z,1001.61
2017-12-29T04:22:44.786Z,1001.58
2017-12-29T04:23:44.726Z,1001.66
2017-12-29T04:24:45.096Z,1001.6
2017-12-29T04:25:45.406Z,1001.59
2017-12-29T04:26:45.682Z,1001.62
2017-12-29T04:27:45.897Z,1001.62
2017-12-29T04:28:45.783Z,1001.59
2017-12-29T04:29:46.076Z,1001.63
2017-12-29T04:30:45.833Z,1001.65
2017-12-29T04:31:46.086Z,1001.66
2017-12-29T04:32:46.154Z,1001.63
2017-12-29T04:33:46.478Z,1001.62
2017-12-29T04:34:46.688Z,1001.64
2017-12-29T04:35:46.696Z,1001.62
2017-12-29T04:36:46.562Z,1001.62
2017-12-29T04:37:46.527Z,1001.63
2017-12-29T04:38:46.972Z,1001.66
2017-12-29T04:39:46.998Z,1001.63
2017-12-29T04:40:47.041Z,1001.64
2017-12-29T04:41:47.343Z,1001.6
2017-12-29T04:43:52.537Z,1001.69
2017-12-29T04:44:52.949Z,1001.65
2017-12-29T04:45:52.186Z,1001.74
2017-12-29T04:46:52.208Z,1001.71
2017-12-29T04:47:52.234Z,1001.72
2017-12-29T04:48:52.604Z,1001.74
2017-12-29T04:49:52.843Z,1001.73
2017-12-29T04:50:52.867Z,1001.77
2017-12-29T04:51:52.883Z,1001.82
2017-12-29T04:52:53.298Z,1001.76
2017-12-29T04:53:53.324Z,1001.82
2017-12-29T04:54:53.481Z,1001.82
2017-12-29T04:55:53.520Z,1001.79
2017-12-29T04:56:53.551Z,1001.79
2017-12-29T04:57:53.544Z,1001.85
2017-12-29T04:58:53.977Z,1001.83
2017-12-29T04:59:54.546Z,1001.89
2017-12-29T05:00:54.526Z,1001.89
2017-12-29T05:01:54.529Z,1001.86
2017-12-29T05:02:54.571Z,1001.93
2017-12-29T05:03:54.716Z,1001.86
2017-12-29T05:04:54.594Z,1001.83
2017-12-29T05:05:54.676Z,1001.87
2017-12-29T05:06:54.634Z,1001.85
2017-12-29T05:07:54.668Z,1001.87
2017-12-29T05:08:54.931Z,1001.88
2017-12-29T05:09:54.938Z,1001.92
2017-12-29T05:10:54.968Z,1001.93
2017-12-29T05:11:55.237Z,1001.96
2017-12-29T05:12:55.272Z,1001.98
2017-12-29T05:13:55.272Z,1002.01
2017-12-29T05:14:55.537Z,1002.03
2017-12-29T05:15:55.664Z,1002.03
2017-12-29T05:16:55.559Z,1002.02
2017-12-29T05:17:55.838Z,1002.08
2017-12-29T05:18:55.966Z,1002.06
2017-12-29T05:19:56.276Z,1002.05
2017-12-29T05:20:56.282Z,1002.04
2017-12-29T05:21:56.320Z,1002.05
2017-12-29T05:22:56.666Z,1002.1
2017-12-29T05:23:56.649Z,1002.06
2017-12-29T05:24:56.695Z,1002.09
2017-12-29T05:25:57.115Z,1002.06
2017-12-29T05:26:57.111Z,1002.12
2017-12-29T05:27:57.147Z,1002.11
2017-12-29T05:28:57.239Z,1002.15
2017-12-29T05:29:57.201Z,1002.12
2017-12-29T05:30:57.199Z,1002.14
2017-12-29T05:31:57.650Z,1002.15
2017-12-29T05:32:57.848Z,1002.1
2017-12-29T05:33:57.693Z,1002.12
2017-12-29T05:34:57.815Z,1002.18
2017-12-29T05:35:57.908Z,1002.23
2017-12-29T05:36:57.934Z,1002.22
2017-12-29T05:37:57.972Z,1002.24
2017-12-29T05:38:58.024Z,1002.25
2017-12-29T05:39:58.147Z,1002.24
2017-12-29T05:40:58.149Z,1002.21
2017-12-29T05:41:58.193Z,1002.27
2017-12-29T05:42:58.205Z,1002.2
2017-12-29T05:43:58.556Z,1002.18
2017-12-29T05:44:58.255Z,1002.16
2017-12-29T05:45:58.264Z,1002.2
2017-12-29T05:46:58.305Z,1002.19
2017-12-29T05:47:58.419Z,1002.25
2017-12-29T05:48:58.761Z,1002.27
2017-12-29T05:49:58.355Z,1002.24
2017-12-29T05:50:58.381Z,1002.26
2017-12-29T05:51:58.594Z,1002.29
2017-12-29T05:52:58.752Z,1002.27
2017-12-29T05:53:59.054Z,1002.32
2017-12-29T05:54:58.802Z,1002.29
2017-12-29T05:55:59.204Z,1002.36
2017-12-29T05:56:59.243Z,1002.32
2017-12-29T05:58:00.298Z,1002.33
2017-12-29T05:59:00.223Z,1002.38
2017-12-29T06:00:00.800Z,1002.37
2017-12-29T06:01:01.769Z,1002.43
2017-12-29T06:02:01.608Z,1002.45
2017-12-29T06:03:01.478Z,1002.42
2017-12-29T06:04:01.612Z,1002.4
2017-12-29T06:05:02.076Z,1002.36
2017-12-29T06:06:02.008Z,1002.39
2017-12-29T06:07:02.180Z,1002.3
2017-12-29T06:08:02.473Z,1002.23
2017-12-29T06:09:02.487Z,1002.28
2017-12-29T06:10:02.531Z,1002.27
2017-12-29T06:11:03.055Z,1002.27
2017-12-29T06:12:03.051Z,1002.26
2017-12-29T06:13:03.234Z,1002.26
2017-12-29T06:14:03.353Z,1002.2
2017-12-29T06:15:03.418Z,1002.26
2017-12-29T06:16:03.412Z,1002.24
2017-12-29T06:17:03.434Z,1002.33
2017-12-29T06:18:03.627Z,1002.24
2017-12-29T06:19:03.656Z,1002.31
2017-12-29T06:20:03.662Z,1002.27
2017-12-29T06:21:03.682Z,1002.23
2017-12-29T06:22:03.709Z,1002.31
2017-12-29T06:23:04.121Z,1002.21
2017-12-29T06:24:04.125Z,1002.26
2017-12-29T06:25:04.668Z,1002.28
2017-12-29T06:26:04.313Z,1002.35
2017-12-29T06:27:04.339Z,1002.32
2017-12-29T06:28:04.335Z,1002.31
2017-12-29T06:29:04.428Z,1002.4
2017-12-29T06:30:04.862Z,1002.39
2017-12-29T06:31:04.812Z,1002.4
2017-12-29T06:32:04.835Z,1002.38
2017-12-29T06:33:04.872Z,1002.44
2017-12-29T06:34:05.301Z,1002.43
2017-12-29T06:35:05.316Z,1002.44
2017-12-29T06:36:05.327Z,1002.45
2017-12-29T06:37:05.545Z,1002.48
2017-12-29T06:38:05.365Z,1002.55
2017-12-29T06:39:05.395Z,1002.54
2017-12-29T06:40:05.724Z,1002.52
2017-12-29T06:41:05.734Z,1002.54
2017-12-29T06:42:05.880Z,1002.61
2017-12-29T06:43:06.660Z,1002.58
2017-12-29T06:44:06.653Z,1002.58
2017-12-29T06:45:07.386Z,1002.55
2017-12-29T06:46:07.150Z,1002.58
2017-12-29T06:47:07.180Z,1002.59
2017-12-29T06:48:07.195Z,1002.62
2017-12-29T06:49:07.306Z,1002.62
2017-12-29T06:50:07.233Z,1002.7
2017-12-29T06:51:07.258Z,1002.7
2017-12-29T06:52:07.289Z,1002.66
2017-12-29T06:53:07.310Z,1002.72
2017-12-29T06:54:07.661Z,1002.74
2017-12-29T06:55:07.685Z,1002.73
2017-12-29T06:56:07.707Z,1002.71
2017-12-29T06:57:07.717Z,1002.67
2017-12-29T06:58:08.118Z,1002.71
2017-12-29T06:59:07.762Z,1002.69
2017-12-29T07:00:07.789Z,1002.67
2017-12-29T07:01:07.804Z,1002.7
2017-12-29T07:02:08.311Z,1002.68
2017-12-29T07:03:08.302Z,1002.63
2017-12-29T07:04:08.320Z,1002.75
2017-12-29T07:05:08.368Z,1002.75
2017-12-29T07:06:08.374Z,1002.73
2017-12-29T07:07:08.394Z,1002.7
2017-12-29T07:08:08.560Z,1002.78
2017-12-29T07:09:08.572Z,1002.76
2017-12-29T07:10:08.606Z,1002.75
2017-12-29T07:11:08.619Z,1002.7
2017-12-29T07:12:08.676Z,1002.7
2017-12-29T07:13:08.686Z,1002.71
2017-12-29T07:14:08.691Z,1002.73
2017-12-29T07:15:08.703Z,1002.73
2017-12-29T07:16:08.729Z,1002.79
2017-12-29T07:17:09.136Z,1002.79
2017-12-29T07:18:09.242Z,1002.76
2017-12-29T07:19:09.255Z,1002.77
2017-12-29T07:20:09.351Z,1002.82
2017-12-29T07:21:09.646Z,1002.81
2017-12-29T07:22:10.030Z,1002.82
2017-12-29T07:23:10.141Z,1002.89
2017-12-29T07:24:10.232Z,1002.89
2017-12-29T07:25:10.522Z,1002.89
2017-12-29T07:26:10.635Z,1002.88
2017-12-29T07:27:10.769Z,1002.91
2017-12-29T07:28:10.791Z,1002.93
2017-12-29T07:29:10.812Z,1002.85
2017-12-29T07:30:10.844Z,1002.88
2017-12-29T07:31:11.100Z,1002.91
2017-12-29T07:32:11.605Z,1002.9
2017-12-29T07:33:11.221Z,1002.88
2017-12-29T07:34:11.991Z,1002.92
2017-12-29T07:35:11.861Z,1002.92
2017-12-29T07:36:11.912Z,1002.95
2017-12-29T07:37:11.925Z,1002.93
2017-12-29T07:38:11.910Z,1002.92
2017-12-29T07:39:11.992Z,1002.96
2017-12-29T07:40:12.025Z,1002.9
2017-12-29T07:41:12.241Z,1002.92
2017-12-29T07:42:11.999Z,1002.93
2017-12-29T07:43:12.035Z,1002.97
2017-12-29T07:44:12.059Z,1002.89
2017-12-29T07:45:12.508Z,1002.98
2017-12-29T07:46:12.948Z,1003
2017-12-29T07:47:13.317Z,1002.96
2017-12-29T07:48:13.299Z,1002.94
2017-12-29T07:49:13.728Z,1002.96
2017-12-29T07:50:13.752Z,1002.96
2017-12-29T07:51:13.806Z,1002.96
2017-12-29T07:52:13.796Z,1002.97
2017-12-29T07:53:13.853Z,1003.01
2017-12-29T07:54:13.845Z,1002.96
2017-12-29T07:55:13.866Z,1003.06
2017-12-29T07:56:14.387Z,1002.96
2017-12-29T07:57:14.599Z,1002.99
2017-12-29T07:58:14.756Z,1003.11
2017-12-29T07:59:14.483Z,1003.02
2017-12-29T08:00:14.867Z,1003
2017-12-29T08:01:14.641Z,1003.11
2017-12-29T08:02:14.745Z,1003.09
2017-12-29T08:03:14.814Z,1003.06
2017-12-29T08:04:14.547Z,1003.11
2017-12-29T08:05:14.760Z,1003.16
2017-12-29T08:06:14.945Z,1003.21
2017-12-29T08:07:14.979Z,1003.24
2017-12-29T08:08:15.038Z,1003.28
2017-12-29T08:09:15.076Z,1003.33
2017-12-29T08:10:15.078Z,1003.29
2017-12-29T08:11:15.060Z,1003.26
2017-12-29T08:12:15.086Z,1003.33
2017-12-29T08:13:14.842Z,1003.32
2017-12-29T08:14:14.879Z,1003.34
2017-12-29T08:15:15.078Z,1003.34
2017-12-29T08:16:14.934Z,1003.35
2017-12-29T08:17:14.824Z,1003.35
2017-12-29T08:18:14.855Z,1003.42
2017-12-29T08:19:15.157Z,1003.41
2017-12-29T08:20:15.512Z,1003.47
2017-12-29T08:21:15.479Z,1003.42
2017-12-29T08:22:15.885Z,1003.5
2017-12-29T08:23:15.895Z,1003.46
2017-12-29T08:24:15.910Z,1003.46
2017-12-29T08:25:16.132Z,1003.52
2017-12-29T08:26:16.195Z,1003.53
2017-12-29T08:27:16.198Z,1003.55
2017-12-29T08:28:16.769Z,1003.58
2017-12-29T08:29:16.686Z,1003.62
2017-12-29T08:30:16.673Z,1003.56
2017-12-29T08:31:16.684Z,1003.6
2017-12-29T08:32:17.130Z,1003.66
2017-12-29T08:33:17.641Z,1003.62
2017-12-29T08:34:18.389Z,1003.62
2017-12-29T08:35:18.218Z,1003.61
2017-12-29T08:36:18.417Z,1003.61
2017-12-29T08:37:18.376Z,1003.66
2017-12-29T08:38:18.302Z,1003.68
2017-12-29T08:39:18.733Z,1003.67
2017-12-29T08:40:18.744Z,1003.67
2017-12-29T08:41:18.768Z,1003.7
2017-12-29T08:42:18.892Z,1003.6
2017-12-29T08:43:19.170Z,1003.68
2017-12-29T08:44:19.367Z,1003.71
2017-12-29T08:45:19.560Z,1003.67
2017-12-29T08:46:20.250Z,1003.63
2017-12-29T08:47:20.566Z,1003.65
2017-12-29T08:48:20.638Z,1003.68
2017-12-29T08:49:20.576Z,1003.74
2017-12-29T08:50:20.707Z,1003.73
2017-12-29T08:51:20.651Z,1003.7
2017-12-29T08:52:20.671Z,1003.74
2017-12-29T08:53:20.792Z,1003.75
2017-12-29T08:54:21.044Z,1003.83
2017-12-29T08:55:21.083Z,1003.75
2017-12-29T08:56:21.093Z,1003.75
2017-12-29T08:57:21.346Z,1003.78
2017-12-29T08:58:21.225Z,1003.79
2017-12-29T08:59:21.195Z,1003.88
2017-12-29T09:00:21.190Z,1003.86
2017-12-29T09:01:21.211Z,1003.86
2017-12-29T09:02:21.308Z,1003.9
2017-12-29T09:03:21.278Z,1003.86
2017-12-29T09:04:21.311Z,1003.95
2017-12-29T09:05:21.344Z,1003.89
2017-12-29T09:06:21.330Z,1004
2017-12-29T09:07:21.348Z,1003.96
2017-12-29T09:08:21.376Z,1003.98
2017-12-29T09:09:21.434Z,1004.02
2017-12-29T09:10:21.517Z,1003.99
2017-12-29T09:11:21.463Z,1004
2017-12-29T09:12:21.480Z,1003.96
2017-12-29T09:13:21.595Z,1003.95
2017-12-29T09:14:21.517Z,1004.07
2017-12-29T09:15:21.960Z,1003.99
2017-12-29T09:16:21.980Z,1004.04
2017-12-29T09:17:22.363Z,1004
2017-12-29T09:18:22.291Z,1004
2017-12-29T09:19:22.735Z,1003.95
2017-12-29T09:20:22.736Z,1003.98
2017-12-29T09:21:23.130Z,1003.91
2017-12-29T09:22:23.111Z,1004.02
2017-12-29T09:23:23.139Z,1004.03
2017-12-29T09:24:23.436Z,1003.99
2017-12-29T09:25:23.431Z,1004.01
2017-12-29T09:26:23.476Z,1003.99
2017-12-29T09:27:23.524Z,1004.04
2017-12-29T09:28:23.504Z,1003.95
2017-12-29T09:29:23.529Z,1004.01
2017-12-29T09:30:23.547Z,1003.99
2017-12-29T09:31:23.980Z,1004
2017-12-29T09:32:24.008Z,1003.97
2017-12-29T09:33:24.676Z,1003.93
2017-12-29T09:34:24.767Z,1003.98
2017-12-29T09:35:24.395Z,1004.01
2017-12-29T09:36:24.453Z,1003.97
2017-12-29T09:37:24.551Z,1004
2017-12-29T09:38:24.575Z,1004
2017-12-29T09:39:25.014Z,1003.96
2017-12-29T09:40:25.005Z,1003.95
2017-12-29T09:41:25.128Z,1003.97
2017-12-29T09:42:25.977Z,1003.95
2017-12-29T09:43:25.923Z,1003.94
2017-12-29T09:44:25.822Z,1003.91
2017-12-29T09:45:26.086Z,1003.97
2017-12-29T09:46:25.767Z,1003.99
2017-12-29T09:47:26.016Z,1003.97
2017-12-29T09:48:33.297Z,1003.98
2017-12-29T09:49:33.581Z,1004.01
2017-12-29T09:50:33.500Z,1003.98
2017-12-29T09:51:33.862Z,1003.96
2017-12-29T09:52:33.353Z,1004.02
2017-12-29T09:53:33.595Z,1004.01
2017-12-29T09:54:33.414Z,1004.05
2017-12-29T09:55:33.686Z,1004.07
2017-12-29T09:56:33.561Z,1004.03
2017-12-29T09:57:33.631Z,1004.02
2017-12-29T09:58:33.615Z,1003.97
2017-12-29T09:59:33.761Z,1004.05
2017-12-29T10:01:33.584Z,1003.98
2017-12-29T10:02:33.818Z,1004
2017-12-29T10:03:33.464Z,1003.93
2017-12-29T10:04:33.601Z,1003.9
2017-12-29T10:05:33.891Z,1003.93
2017-12-29T10:06:33.548Z,1003.9
2017-12-29T10:07:33.527Z,1003.91
2017-12-29T10:08:33.959Z,1003.9
2017-12-29T10:09:34.491Z,1003.84
2017-12-29T10:10:34.608Z,1003.87
2017-12-29T10:11:34.620Z,1003.86
2017-12-29T10:12:34.673Z,1003.87
2017-12-29T10:13:34.590Z,1003.84
2017-12-29T10:14:35.078Z,1003.82
2017-12-29T10:15:35.151Z,1003.88
2017-12-29T10:16:35.315Z,1003.86
2017-12-29T10:17:35.006Z,1003.82
2017-12-29T10:18:35.295Z,1003.9
2017-12-29T10:19:35.411Z,1003.91
2017-12-29T10:20:35.330Z,1003.88
2017-12-29T10:21:35.199Z,1003.84
2017-12-29T10:22:35.113Z,1003.84
2017-12-29T10:23:35.285Z,1003.82
2017-12-29T10:24:35.123Z,1003.83
2017-12-29T10:25:35.540Z,1003.87
2017-12-29T10:26:35.561Z,1003.87
2017-12-29T10:27:35.960Z,1003.87
2017-12-29T10:28:36.039Z,1003.78
2017-12-29T10:29:36.343Z,1003.77
2017-12-29T10:30:36.507Z,1003.81
2017-12-29T10:31:36.548Z,1003.83
2017-12-29T10:32:36.573Z,1003.8
2017-12-29T10:33:36.962Z,1003.78
2017-12-29T10:34:36.980Z,1003.76
2017-12-29T10:35:37.211Z,1003.78
2017-12-29T10:36:37.302Z,1003.75
2017-12-29T10:37:37.259Z,1003.67
2017-12-29T10:38:37.325Z,1003.69
2017-12-29T10:39:37.322Z,1003.68
2017-12-29T10:40:37.331Z,1003.71
2017-12-29T10:41:37.546Z,1003.74
2017-12-29T10:42:38.085Z,1003.67
2017-12-29T10:43:38.031Z,1003.73
2017-12-29T10:44:38.157Z,1003.69
2017-12-29T10:45:38.326Z,1003.66
2017-12-29T10:46:38.516Z,1003.67
2017-12-29T10:47:38.513Z,1003.63
2017-12-29T10:48:38.827Z,1003.63
2017-12-29T10:49:39.240Z,1003.59
2017-12-29T10:50:39.269Z,1003.64
2017-12-29T10:51:39.288Z,1003.71
2017-12-29T10:52:39.693Z,1003.66
2017-12-29T10:53:39.735Z,1003.63
2017-12-29T10:54:39.897Z,1003.67
2017-12-29T10:55:39.920Z,1003.66
2017-12-29T10:56:40.284Z,1003.64
2017-12-29T10:57:40.317Z,1003.63
2017-12-29T10:58:40.384Z,1003.56
2017-12-29T10:59:40.367Z,1003.64
2017-12-29T11:00:40.449Z,1003.58
2017-12-29T11:01:40.928Z,1003.61
2017-12-29T11:02:40.661Z,1003.59
2017-12-29T11:03:40.612Z,1003.61
2017-12-29T11:04:40.497Z,1003.53
2017-12-29T11:05:40.874Z,1003.62
2017-12-29T11:06:40.884Z,1003.52
2017-12-29T11:07:40.886Z,1003.56
2017-12-29T11:08:41.302Z,1003.57
2017-12-29T11:09:41.327Z,1003.57
2017-12-29T11:10:41.724Z,1003.52
2017-12-29T11:11:41.730Z,1003.53
2017-12-29T11:12:42.082Z,1003.54
2017-12-29T11:13:42.249Z,1003.54
2017-12-29T11:14:42.284Z,1003.51
2017-12-29T11:15:42.636Z,1003.53
2017-12-29T11:16:42.846Z,1003.54
2017-12-29T11:17:42.855Z,1003.49
2017-12-29T11:18:42.880Z,1003.58
2017-12-29T11:19:43.149Z,1003.49
2017-12-29T11:20:43.147Z,1003.48
2017-12-29T11:21:43.611Z,1003.46
2017-12-29T11:22:43.582Z,1003.43
2017-12-29T11:23:43.582Z,1003.41
2017-12-29T11:24:43.775Z,1003.46
2017-12-29T11:25:44.046Z,1003.43
2017-12-29T11:26:44.085Z,1003.47
2017-12-29T11:27:44.123Z,1003.41
2017-12-29T11:28:44.372Z,1003.46
2017-12-29T11:29:44.373Z,1003.45
2017-12-29T11:30:44.536Z,1003.35
2017-12-29T11:31:44.827Z,1003.34
2017-12-29T11:32:44.846Z,1003.34
2017-12-29T11:33:44.869Z,1003.34
2017-12-29T11:34:44.944Z,1003.31
2017-12-29T11:35:44.967Z,1003.35
2017-12-29T11:36:46.310Z,1003.37
2017-12-29T11:37:45.903Z,1003.3
2017-12-29T11:38:45.843Z,1003.29
2017-12-29T11:39:46.048Z,1003.25
2017-12-29T11:40:45.883Z,1003.24
2017-12-29T11:41:45.888Z,1003.22
2017-12-29T11:42:46.005Z,1003.23
2017-12-29T11:43:45.952Z,1003.2
2017-12-29T11:44:46.100Z,1003.22
2017-12-29T11:45:46.149Z,1003.18
2017-12-29T11:46:46.157Z,1003.17
2017-12-29T11:47:46.534Z,1003.15
2017-12-29T11:48:47.101Z,1003.11
2017-12-29T11:49:47.339Z,1003.07
2017-12-29T11:50:47.470Z,1003.17
2017-12-29T11:51:47.538Z,1003.08
2017-12-29T11:52:47.893Z,1003.05
2017-12-29T11:53:47.991Z,1003.1
2017-12-29T11:54:48.292Z,1003.1
2017-12-29T11:55:48.253Z,1003.12
2017-12-29T11:56:48.284Z,1003.12
2017-12-29T11:57:48.350Z,1003.09
2017-12-29T11:58:48.718Z,1003.12
2017-12-29T11:59:48.749Z,1003.09
2017-12-29T12:00:51.495Z,1003.07
2017-12-29T12:01:51.510Z,1003.08
2017-12-29T12:02:51.540Z,1003.05
2017-12-29T12:03:51.560Z,1002.98
2017-12-29T12:04:51.616Z,1003.03
2017-12-29T12:05:51.655Z,1002.96
2017-12-29T12:06:51.739Z,1002.93
2017-12-29T12:07:52.034Z,1002.97
2017-12-29T12:08:52.478Z,1002.95
2017-12-29T12:09:52.435Z,1002.94
2017-12-29T12:10:52.506Z,1002.99
2017-12-29T12:11:52.545Z,1002.98
2017-12-29T12:12:52.493Z,1003.02
2017-12-29T12:13:52.722Z,1003.04
2017-12-29T12:14:52.912Z,1003